sensor_id;sensor_type;location;lat;lon;timestamp;P1;durP1;ratioP1;P2;durP2;ratioP2
10090;SDS011;5084;51.386;6.778;2023-02-15T00:01:29;10.03;;;7.43;;
10090;SDS011;5084;51.386;6.778;2023-02-15T00:03:55;11.00;;;8.17;;
10090;SDS011;5084;51.386;6.778;2023-02-15T00:06:21;8.60;;;7.03;;
10090;SDS011;5084;51.386;6.778;2023-02-15T00:08:47;9.47;;;7.77;;
10090;SDS011;5084;51.386;6.778;2023-02-15T00:11:15;8.80;;;6.73;;
10090;SDS011;5084;51.386;6.778;2023-02-15T00:13:41;9.53;;;8.10;;
10090;SDS011;5084;51.386;6.778;2023-02-15T00:16:09;8.13;;;7.33;;
10090;SDS011;5084;51.386;6.778;2023-02-15T00:18:35;9.50;;;7.67;;
10090;SDS011;5084;51.386;6.778;2023-02-15T00:21:05;9.30;;;7.47;;
10090;SDS011;5084;51.386;6.778;2023-02-15T00:23:31;11.03;;;8.53;;
10090;SDS011;5084;51.386;6.778;2023-02-15T00:26:04;10.90;;;8.30;;
10090;SDS011;5084;51.386;6.778;2023-02-15T00:28:30;12.10;;;8.30;;
10090;SDS011;5084;51.386;6.778;2023-02-15T00:31:06;10.47;;;8.20;;
10090;SDS011;5084;51.386;6.778;2023-02-15T00:33:33;8.67;;;7.87;;
10090;SDS011;5084;51.386;6.778;2023-02-15T00:36:00;9.40;;;7.97;;
10090;SDS011;5084;51.386;6.778;2023-02-15T00:38:26;9.07;;;7.47;;
10090;SDS011;5084;51.386;6.778;2023-02-15T00:40:53;10.43;;;8.27;;
10090;SDS011;5084;51.386;6.778;2023-02-15T00:43:19;10.13;;;7.97;;
10090;SDS011;5084;51.386;6.778;2023-02-15T00:45:45;10.63;;;8.87;;
10090;SDS011;5084;51.386;6.778;2023-02-15T00:48:12;10.30;;;8.67;;
10090;SDS011;5084;51.386;6.778;2023-02-15T00:50:38;10.10;;;9.00;;
10090;SDS011;5084;51.386;6.778;2023-02-15T00:53:04;11.63;;;8.97;;
10090;SDS011;5084;51.386;6.778;2023-02-15T00:55:30;10.37;;;8.30;;
10090;SDS011;5084;51.386;6.778;2023-02-15T00:57:56;8.77;;;7.83;;
10090;SDS011;5084;51.386;6.778;2023-02-15T01:00:22;9.43;;;8.23;;
10090;SDS011;5084;51.386;6.778;2023-02-15T01:02:48;10.67;;;9.03;;
10090;SDS011;5084;51.386;6.778;2023-02-15T01:05:14;10.27;;;8.40;;
10090;SDS011;5084;51.386;6.778;2023-02-15T01:07:40;10.40;;;8.27;;
10090;SDS011;5084;51.386;6.778;2023-02-15T01:10:06;10.97;;;9.10;;
10090;SDS011;5084;51.386;6.778;2023-02-15T01:12:33;10.87;;;9.03;;
10090;SDS011;5084;51.386;6.778;2023-02-15T01:14:59;11.50;;;8.77;;
10090;SDS011;5084;51.386;6.778;2023-02-15T01:17:25;13.93;;;10.07;;
10090;SDS011;5084;51.386;6.778;2023-02-15T01:19:51;11.33;;;9.03;;
10090;SDS011;5084;51.386;6.778;2023-02-15T01:22:18;11.70;;;9.10;;
10090;SDS011;5084;51.386;6.778;2023-02-15T01:24:44;11.23;;;8.93;;
10090;SDS011;5084;51.386;6.778;2023-02-15T01:27:10;10.90;;;9.27;;
10090;SDS011;5084;51.386;6.778;2023-02-15T01:29:36;11.57;;;8.90;;
10090;SDS011;5084;51.386;6.778;2023-02-15T01:32:02;9.50;;;8.47;;
10090;SDS011;5084;51.386;6.778;2023-02-15T01:34:29;12.07;;;9.57;;
10090;SDS011;5084;51.386;6.778;2023-02-15T01:36:55;11.40;;;9.00;;
10090;SDS011;5084;51.386;6.778;2023-02-15T01:39:21;11.27;;;8.87;;
10090;SDS011;5084;51.386;6.778;2023-02-15T01:41:47;10.47;;;9.17;;
10090;SDS011;5084;51.386;6.778;2023-02-15T01:46:58;13.00;;;9.90;;
10090;SDS011;5084;51.386;6.778;2023-02-15T01:49:24;11.27;;;9.13;;
10090;SDS011;5084;51.386;6.778;2023-02-15T01:51:52;13.67;;;10.30;;
10090;SDS011;5084;51.386;6.778;2023-02-15T01:54:20;10.27;;;9.17;;
10090;SDS011;5084;51.386;6.778;2023-02-15T01:56:49;11.20;;;9.57;;
10090;SDS011;5084;51.386;6.778;2023-02-15T01:59:17;12.83;;;9.77;;
10090;SDS011;5084;51.386;6.778;2023-02-15T02:01:44;12.20;;;9.70;;
10090;SDS011;5084;51.386;6.778;2023-02-15T02:07:07;11.27;;;8.97;;
10090;SDS011;5084;51.386;6.778;2023-02-15T02:09:34;11.20;;;10.03;;
10090;SDS011;5084;51.386;6.778;2023-02-15T02:12:01;11.80;;;9.63;;
10090;SDS011;5084;51.386;6.778;2023-02-15T02:14:27;12.47;;;10.20;;
10090;SDS011;5084;51.386;6.778;2023-02-15T02:16:57;12.07;;;9.33;;
10090;SDS011;5084;51.386;6.778;2023-02-15T02:27:45;12.10;;;10.07;;
10090;SDS011;5084;51.386;6.778;2023-02-15T02:35:30;13.60;;;9.93;;
10090;SDS011;5084;51.386;6.778;2023-02-15T02:38:07;12.27;;;9.67;;
10090;SDS011;5084;51.386;6.778;2023-02-15T02:40:39;11.87;;;9.90;;
10090;SDS011;5084;51.386;6.778;2023-02-15T02:43:13;13.73;;;10.90;;
10090;SDS011;5084;51.386;6.778;2023-02-15T02:45:43;11.10;;;9.67;;
10090;SDS011;5084;51.386;6.778;2023-02-15T02:48:13;13.03;;;10.13;;
10090;SDS011;5084;51.386;6.778;2023-02-15T02:50:40;13.07;;;10.03;;
10090;SDS011;5084;51.386;6.778;2023-02-15T02:53:07;13.23;;;10.13;;
10090;SDS011;5084;51.386;6.778;2023-02-15T02:55:36;13.40;;;10.27;;
10090;SDS011;5084;51.386;6.778;2023-02-15T02:58:13;12.40;;;10.37;;
10090;SDS011;5084;51.386;6.778;2023-02-15T03:00:51;12.77;;;9.97;;
10090;SDS011;5084;51.386;6.778;2023-02-15T03:05:48;14.10;;;10.93;;
10090;SDS011;5084;51.386;6.778;2023-02-15T03:08:16;13.37;;;10.47;;
10090;SDS011;5084;51.386;6.778;2023-02-15T03:10:46;13.13;;;10.43;;
10090;SDS011;5084;51.386;6.778;2023-02-15T03:13:13;12.77;;;10.10;;
10090;SDS011;5084;51.386;6.778;2023-02-15T03:15:39;13.37;;;10.53;;
10090;SDS011;5084;51.386;6.778;2023-02-15T03:18:29;12.87;;;11.10;;
10090;SDS011;5084;51.386;6.778;2023-02-15T03:20:56;14.20;;;11.17;;
10090;SDS011;5084;51.386;6.778;2023-02-15T03:23:25;12.33;;;10.17;;
10090;SDS011;5084;51.386;6.778;2023-02-15T03:25:57;12.87;;;10.10;;
10090;SDS011;5084;51.386;6.778;2023-02-15T03:28:37;14.20;;;11.50;;
10090;SDS011;5084;51.386;6.778;2023-02-15T03:31:05;14.03;;;10.93;;
10090;SDS011;5084;51.386;6.778;2023-02-15T03:33:32;14.43;;;10.93;;
10090;SDS011;5084;51.386;6.778;2023-02-15T03:36:01;13.37;;;10.10;;
10090;SDS011;5084;51.386;6.778;2023-02-15T03:38:31;14.83;;;11.83;;
10090;SDS011;5084;51.386;6.778;2023-02-15T03:40:58;14.57;;;11.13;;
10090;SDS011;5084;51.386;6.778;2023-02-15T03:43:37;12.63;;;10.33;;
10090;SDS011;5084;51.386;6.778;2023-02-15T03:46:08;14.50;;;11.37;;
10090;SDS011;5084;51.386;6.778;2023-02-15T03:48:39;15.07;;;12.07;;
10090;SDS011;5084;51.386;6.778;2023-02-15T03:51:08;14.50;;;11.67;;
10090;SDS011;5084;51.386;6.778;2023-02-15T03:53:54;15.23;;;11.60;;
10090;SDS011;5084;51.386;6.778;2023-02-15T03:56:21;15.03;;;11.47;;
10090;SDS011;5084;51.386;6.778;2023-02-15T03:58:47;14.83;;;11.60;;
10090;SDS011;5084;51.386;6.778;2023-02-15T04:01:33;14.03;;;10.43;;
10090;SDS011;5084;51.386;6.778;2023-02-15T04:04:19;12.87;;;10.43;;
10090;SDS011;5084;51.386;6.778;2023-02-15T04:06:46;13.70;;;10.90;;
10090;SDS011;5084;51.386;6.778;2023-02-15T04:09:12;13.20;;;9.80;;
10090;SDS011;5084;51.386;6.778;2023-02-15T04:11:57;15.43;;;11.97;;
10090;SDS011;5084;51.386;6.778;2023-02-15T04:14:23;14.27;;;11.27;;
10090;SDS011;5084;51.386;6.778;2023-02-15T04:17:08;13.83;;;12.30;;
10090;SDS011;5084;51.386;6.778;2023-02-15T04:19:34;15.13;;;10.77;;
10090;SDS011;5084;51.386;6.778;2023-02-15T04:22:19;13.90;;;11.30;;
10090;SDS011;5084;51.386;6.778;2023-02-15T04:25:04;13.00;;;10.17;;
10090;SDS011;5084;51.386;6.778;2023-02-15T04:27:42;15.47;;;11.53;;
10090;SDS011;5084;51.386;6.778;2023-02-15T04:30:08;15.00;;;11.67;;
10090;SDS011;5084;51.386;6.778;2023-02-15T04:32:35;13.17;;;10.67;;
10090;SDS011;5084;51.386;6.778;2023-02-15T04:35:01;15.57;;;11.00;;
10090;SDS011;5084;51.386;6.778;2023-02-15T04:37:27;11.70;;;10.47;;
10090;SDS011;5084;51.386;6.778;2023-02-15T04:39:53;14.00;;;11.17;;
10090;SDS011;5084;51.386;6.778;2023-02-15T04:42:19;13.00;;;10.97;;
10090;SDS011;5084;51.386;6.778;2023-02-15T04:44:45;14.30;;;12.00;;
10090;SDS011;5084;51.386;6.778;2023-02-15T04:47:11;14.53;;;11.43;;
10090;SDS011;5084;51.386;6.778;2023-02-15T04:49:37;14.97;;;11.43;;
10090;SDS011;5084;51.386;6.778;2023-02-15T04:52:03;14.87;;;11.30;;
10090;SDS011;5084;51.386;6.778;2023-02-15T04:54:29;15.40;;;11.00;;
10090;SDS011;5084;51.386;6.778;2023-02-15T04:56:55;14.30;;;11.17;;
10090;SDS011;5084;51.386;6.778;2023-02-15T04:59:21;15.40;;;11.97;;
10090;SDS011;5084;51.386;6.778;2023-02-15T05:01:47;17.07;;;12.83;;
10090;SDS011;5084;51.386;6.778;2023-02-15T05:04:13;14.87;;;11.20;;
10090;SDS011;5084;51.386;6.778;2023-02-15T05:06:39;15.23;;;11.23;;
10090;SDS011;5084;51.386;6.778;2023-02-15T05:09:05;14.77;;;11.13;;
10090;SDS011;5084;51.386;6.778;2023-02-15T05:11:32;15.07;;;11.93;;
10090;SDS011;5084;51.386;6.778;2023-02-15T05:13:58;16.60;;;13.23;;
10090;SDS011;5084;51.386;6.778;2023-02-15T05:16:24;16.90;;;12.10;;
10090;SDS011;5084;51.386;6.778;2023-02-15T05:18:52;14.77;;;11.67;;
10090;SDS011;5084;51.386;6.778;2023-02-15T05:21:18;16.60;;;12.63;;
10090;SDS011;5084;51.386;6.778;2023-02-15T05:23:44;15.27;;;11.20;;
10090;SDS011;5084;51.386;6.778;2023-02-15T05:26:16;14.97;;;12.33;;
10090;SDS011;5084;51.386;6.778;2023-02-15T05:29:01;13.37;;;11.87;;
10090;SDS011;5084;51.386;6.778;2023-02-15T05:31:27;15.67;;;11.57;;
10090;SDS011;5084;51.386;6.778;2023-02-15T05:33:53;15.03;;;11.70;;
10090;SDS011;5084;51.386;6.778;2023-02-15T05:36:19;15.27;;;12.10;;
10090;SDS011;5084;51.386;6.778;2023-02-15T05:38:45;14.27;;;11.73;;
10090;SDS011;5084;51.386;6.778;2023-02-15T05:41:11;16.50;;;12.50;;
10090;SDS011;5084;51.386;6.778;2023-02-15T05:43:37;15.87;;;12.23;;
10090;SDS011;5084;51.386;6.778;2023-02-15T05:46:04;16.20;;;11.60;;
10090;SDS011;5084;51.386;6.778;2023-02-15T05:48:30;14.67;;;11.77;;
10090;SDS011;5084;51.386;6.778;2023-02-15T05:50:57;14.27;;;10.97;;
10090;SDS011;5084;51.386;6.778;2023-02-15T05:53:23;16.03;;;11.63;;
10090;SDS011;5084;51.386;6.778;2023-02-15T05:55:49;15.70;;;12.30;;
10090;SDS011;5084;51.386;6.778;2023-02-15T05:58:15;14.50;;;12.20;;
10090;SDS011;5084;51.386;6.778;2023-02-15T06:00:41;17.57;;;12.03;;
10090;SDS011;5084;51.386;6.778;2023-02-15T06:03:08;15.23;;;12.20;;
10090;SDS011;5084;51.386;6.778;2023-02-15T06:05:34;16.60;;;12.73;;
10090;SDS011;5084;51.386;6.778;2023-02-15T06:08:00;17.37;;;12.47;;
10090;SDS011;5084;51.386;6.778;2023-02-15T06:10:26;17.33;;;12.70;;
10090;SDS011;5084;51.386;6.778;2023-02-15T06:12:52;15.73;;;11.80;;
10090;SDS011;5084;51.386;6.778;2023-02-15T06:15:18;18.60;;;13.17;;
10090;SDS011;5084;51.386;6.778;2023-02-15T06:17:44;18.50;;;13.50;;
10090;SDS011;5084;51.386;6.778;2023-02-15T06:20:10;16.13;;;12.50;;
10090;SDS011;5084;51.386;6.778;2023-02-15T06:22:37;17.37;;;12.23;;
10090;SDS011;5084;51.386;6.778;2023-02-15T06:25:03;16.83;;;13.07;;
10090;SDS011;5084;51.386;6.778;2023-02-15T06:27:29;14.80;;;11.43;;
10090;SDS011;5084;51.386;6.778;2023-02-15T06:29:55;14.80;;;12.10;;
10090;SDS011;5084;51.386;6.778;2023-02-15T06:32:21;15.50;;;12.57;;
10090;SDS011;5084;51.386;6.778;2023-02-15T06:34:47;16.60;;;12.57;;
10090;SDS011;5084;51.386;6.778;2023-02-15T06:37:13;16.67;;;12.33;;
10090;SDS011;5084;51.386;6.778;2023-02-15T06:39:39;17.20;;;12.73;;
10090;SDS011;5084;51.386;6.778;2023-02-15T06:42:05;18.00;;;12.93;;
10090;SDS011;5084;51.386;6.778;2023-02-15T06:44:31;16.37;;;12.67;;
10090;SDS011;5084;51.386;6.778;2023-02-15T06:46:57;16.73;;;12.83;;
10090;SDS011;5084;51.386;6.778;2023-02-15T06:49:23;18.23;;;13.13;;
10090;SDS011;5084;51.386;6.778;2023-02-15T06:51:49;16.70;;;12.73;;
10090;SDS011;5084;51.386;6.778;2023-02-15T06:54:15;16.23;;;12.30;;
10090;SDS011;5084;51.386;6.778;2023-02-15T06:56:41;18.53;;;13.43;;
10090;SDS011;5084;51.386;6.778;2023-02-15T06:59:08;17.50;;;13.33;;
10090;SDS011;5084;51.386;6.778;2023-02-15T07:01:34;18.17;;;13.13;;
10090;SDS011;5084;51.386;6.778;2023-02-15T07:04:01;16.37;;;13.83;;
10090;SDS011;5084;51.386;6.778;2023-02-15T07:06:30;18.87;;;13.77;;
10090;SDS011;5084;51.386;6.778;2023-02-15T07:08:57;15.93;;;12.17;;
10090;SDS011;5084;51.386;6.778;2023-02-15T07:11:23;16.93;;;12.63;;
10090;SDS011;5084;51.386;6.778;2023-02-15T07:14:08;15.17;;;11.93;;
10090;SDS011;5084;51.386;6.778;2023-02-15T07:16:34;19.43;;;12.77;;
10090;SDS011;5084;51.386;6.778;2023-02-15T07:19:00;16.50;;;12.93;;
10090;SDS011;5084;51.386;6.778;2023-02-15T07:21:26;15.90;;;12.17;;
10090;SDS011;5084;51.386;6.778;2023-02-15T07:23:55;17.13;;;12.77;;
10090;SDS011;5084;51.386;6.778;2023-02-15T07:26:21;17.63;;;12.97;;
10090;SDS011;5084;51.386;6.778;2023-02-15T07:28:47;17.23;;;12.17;;
10090;SDS011;5084;51.386;6.778;2023-02-15T07:31:13;18.27;;;12.00;;
10090;SDS011;5084;51.386;6.778;2023-02-15T07:33:39;17.63;;;12.50;;
10090;SDS011;5084;51.386;6.778;2023-02-15T07:36:06;15.70;;;12.30;;
10090;SDS011;5084;51.386;6.778;2023-02-15T07:38:33;14.13;;;11.50;;
10090;SDS011;5084;51.386;6.778;2023-02-15T07:41:00;17.27;;;12.57;;
10090;SDS011;5084;51.386;6.778;2023-02-15T07:43:27;17.33;;;12.93;;
10090;SDS011;5084;51.386;6.778;2023-02-15T07:45:54;18.17;;;12.10;;
10090;SDS011;5084;51.386;6.778;2023-02-15T07:48:20;18.63;;;13.87;;
10090;SDS011;5084;51.386;6.778;2023-02-15T07:50:47;15.93;;;12.97;;
10090;SDS011;5084;51.386;6.778;2023-02-15T07:53:13;15.23;;;11.60;;
10090;SDS011;5084;51.386;6.778;2023-02-15T07:55:39;15.80;;;12.40;;
10090;SDS011;5084;51.386;6.778;2023-02-15T07:58:05;16.57;;;12.77;;
10090;SDS011;5084;51.386;6.778;2023-02-15T08:00:31;15.80;;;12.67;;
10090;SDS011;5084;51.386;6.778;2023-02-15T08:03:17;16.43;;;12.53;;
10090;SDS011;5084;51.386;6.778;2023-02-15T08:05:44;16.17;;;11.80;;
10090;SDS011;5084;51.386;6.778;2023-02-15T08:08:10;18.93;;;12.43;;
10090;SDS011;5084;51.386;6.778;2023-02-15T08:11:01;16.83;;;13.27;;
10090;SDS011;5084;51.386;6.778;2023-02-15T08:13:47;16.60;;;12.23;;
10090;SDS011;5084;51.386;6.778;2023-02-15T08:16:21;15.43;;;12.63;;
10090;SDS011;5084;51.386;6.778;2023-02-15T08:18:47;17.00;;;12.23;;
10090;SDS011;5084;51.386;6.778;2023-02-15T08:21:13;17.90;;;13.13;;
10090;SDS011;5084;51.386;6.778;2023-02-15T08:23:39;17.73;;;13.37;;
10090;SDS011;5084;51.386;6.778;2023-02-15T08:26:05;17.37;;;13.00;;
10090;SDS011;5084;51.386;6.778;2023-02-15T08:28:31;16.90;;;12.97;;
10090;SDS011;5084;51.386;6.778;2023-02-15T08:31:07;16.77;;;12.03;;
10090;SDS011;5084;51.386;6.778;2023-02-15T08:33:34;18.10;;;13.27;;
10090;SDS011;5084;51.386;6.778;2023-02-15T08:36:04;18.23;;;12.60;;
10090;SDS011;5084;51.386;6.778;2023-02-15T08:38:31;17.47;;;12.30;;
10090;SDS011;5084;51.386;6.778;2023-02-15T08:40:58;21.43;;;13.80;;
10090;SDS011;5084;51.386;6.778;2023-02-15T08:43:24;17.33;;;12.03;;
10090;SDS011;5084;51.386;6.778;2023-02-15T08:45:50;16.63;;;11.67;;
10090;SDS011;5084;51.386;6.778;2023-02-15T08:48:16;16.00;;;12.67;;
10090;SDS011;5084;51.386;6.778;2023-02-15T08:50:43;15.97;;;12.70;;
10090;SDS011;5084;51.386;6.778;2023-02-15T08:53:09;16.13;;;12.13;;
10090;SDS011;5084;51.386;6.778;2023-02-15T08:55:35;16.03;;;12.53;;
10090;SDS011;5084;51.386;6.778;2023-02-15T08:58:01;17.07;;;11.60;;
10090;SDS011;5084;51.386;6.778;2023-02-15T09:00:27;17.10;;;12.33;;
10090;SDS011;5084;51.386;6.778;2023-02-15T09:02:53;17.67;;;12.10;;
10090;SDS011;5084;51.386;6.778;2023-02-15T09:05:20;16.60;;;12.10;;
10090;SDS011;5084;51.386;6.778;2023-02-15T09:07:46;18.77;;;12.23;;
10090;SDS011;5084;51.386;6.778;2023-02-15T09:10:12;15.53;;;12.20;;
10090;SDS011;5084;51.386;6.778;2023-02-15T09:12:38;15.60;;;12.50;;
10090;SDS011;5084;51.386;6.778;2023-02-15T09:15:04;17.10;;;11.90;;
10090;SDS011;5084;51.386;6.778;2023-02-15T09:17:30;16.07;;;12.33;;
10090;SDS011;5084;51.386;6.778;2023-02-15T09:19:56;18.73;;;13.13;;
10090;SDS011;5084;51.386;6.778;2023-02-15T09:22:22;17.37;;;12.80;;
10090;SDS011;5084;51.386;6.778;2023-02-15T09:24:48;14.73;;;11.00;;
10090;SDS011;5084;51.386;6.778;2023-02-15T09:27:14;17.27;;;12.30;;
10090;SDS011;5084;51.386;6.778;2023-02-15T09:29:40;16.87;;;12.30;;
10090;SDS011;5084;51.386;6.778;2023-02-15T09:32:06;18.53;;;12.97;;
10090;SDS011;5084;51.386;6.778;2023-02-15T09:34:33;17.03;;;11.27;;
10090;SDS011;5084;51.386;6.778;2023-02-15T09:36:59;14.97;;;11.70;;
10090;SDS011;5084;51.386;6.778;2023-02-15T09:39:25;15.67;;;11.80;;
10090;SDS011;5084;51.386;6.778;2023-02-15T09:47:24;15.90;;;11.97;;
10090;SDS011;5084;51.386;6.778;2023-02-15T09:52:31;14.73;;;10.77;;
10090;SDS011;5084;51.386;6.778;2023-02-15T09:57:46;14.87;;;11.30;;
10090;SDS011;5084;51.386;6.778;2023-02-15T10:00:25;14.60;;;11.47;;
10090;SDS011;5084;51.386;6.778;2023-02-15T10:03:08;15.97;;;11.23;;
10090;SDS011;5084;51.386;6.778;2023-02-15T10:08:39;15.03;;;11.33;;
10090;SDS011;5084;51.386;6.778;2023-02-15T10:13:51;15.63;;;11.80;;
10090;SDS011;5084;51.386;6.778;2023-02-15T10:16:31;14.13;;;10.47;;
10090;SDS011;5084;51.386;6.778;2023-02-15T10:19:04;13.00;;;10.10;;
10090;SDS011;5084;51.386;6.778;2023-02-15T10:24:19;14.37;;;11.67;;
10090;SDS011;5084;51.386;6.778;2023-02-15T10:26:49;14.60;;;10.37;;
10090;SDS011;5084;51.386;6.778;2023-02-15T10:34:18;13.60;;;10.70;;
10090;SDS011;5084;51.386;6.778;2023-02-15T10:42:06;14.83;;;10.87;;
10090;SDS011;5084;51.386;6.778;2023-02-15T10:47:09;17.40;;;10.40;;
10090;SDS011;5084;51.386;6.778;2023-02-15T10:52:13;14.73;;;10.83;;
10090;SDS011;5084;51.386;6.778;2023-02-15T10:54:45;13.80;;;10.87;;
10090;SDS011;5084;51.386;6.778;2023-02-15T10:57:30;14.20;;;11.13;;
10090;SDS011;5084;51.386;6.778;2023-02-15T11:05:29;12.77;;;10.50;;
10090;SDS011;5084;51.386;6.778;2023-02-15T11:07:57;13.67;;;10.87;;
10090;SDS011;5084;51.386;6.778;2023-02-15T11:10:42;15.47;;;11.07;;
10090;SDS011;5084;51.386;6.778;2023-02-15T11:13:09;15.60;;;11.33;;
10090;SDS011;5084;51.386;6.778;2023-02-15T11:15:42;14.13;;;11.07;;
10090;SDS011;5084;51.386;6.778;2023-02-15T11:20:45;13.77;;;10.63;;
10090;SDS011;5084;51.386;6.778;2023-02-15T11:23:13;13.93;;;10.40;;
10090;SDS011;5084;51.386;6.778;2023-02-15T11:25:41;14.57;;;11.20;;
10090;SDS011;5084;51.386;6.778;2023-02-15T11:28:16;13.47;;;10.90;;
10090;SDS011;5084;51.386;6.778;2023-02-15T11:30:45;17.80;;;11.00;;
10090;SDS011;5084;51.386;6.778;2023-02-15T11:33:20;14.47;;;11.10;;
10090;SDS011;5084;51.386;6.778;2023-02-15T11:35:53;16.30;;;10.57;;
10090;SDS011;5084;51.386;6.778;2023-02-15T11:38:23;14.17;;;10.37;;
10090;SDS011;5084;51.386;6.778;2023-02-15T11:40:54;13.40;;;10.53;;
10090;SDS011;5084;51.386;6.778;2023-02-15T11:43:29;13.80;;;10.77;;
10090;SDS011;5084;51.386;6.778;2023-02-15T11:45:58;10.70;;;9.60;;
10090;SDS011;5084;51.386;6.778;2023-02-15T11:48:24;13.30;;;10.27;;
10090;SDS011;5084;51.386;6.778;2023-02-15T11:50:51;14.23;;;10.73;;
10090;SDS011;5084;51.386;6.778;2023-02-15T11:53:20;13.47;;;10.37;;
10090;SDS011;5084;51.386;6.778;2023-02-15T11:55:50;13.27;;;10.47;;
10090;SDS011;5084;51.386;6.778;2023-02-15T12:00:54;14.07;;;10.10;;
10090;SDS011;5084;51.386;6.778;2023-02-15T12:03:26;13.40;;;10.67;;
10090;SDS011;5084;51.386;6.778;2023-02-15T12:05:56;22.70;;;12.50;;
10090;SDS011;5084;51.386;6.778;2023-02-15T12:08:23;13.83;;;9.60;;
10090;SDS011;5084;51.386;6.778;2023-02-15T12:13:17;13.60;;;10.20;;
10090;SDS011;5084;51.386;6.778;2023-02-15T12:15:45;15.20;;;9.73;;
10090;SDS011;5084;51.386;6.778;2023-02-15T12:20:47;14.20;;;10.27;;
10090;SDS011;5084;51.386;6.778;2023-02-15T12:23:15;11.77;;;9.50;;
10090;SDS011;5084;51.386;6.778;2023-02-15T12:25:42;12.90;;;10.37;;
10090;SDS011;5084;51.386;6.778;2023-02-15T12:28:26;14.37;;;10.37;;
10090;SDS011;5084;51.386;6.778;2023-02-15T12:30:56;14.60;;;10.07;;
10090;SDS011;5084;51.386;6.778;2023-02-15T12:33:41;13.70;;;10.10;;
10090;SDS011;5084;51.386;6.778;2023-02-15T12:36:24;13.17;;;10.03;;
10090;SDS011;5084;51.386;6.778;2023-02-15T12:39:04;13.17;;;9.87;;
10090;SDS011;5084;51.386;6.778;2023-02-15T12:41:30;11.83;;;9.63;;
10090;SDS011;5084;51.386;6.778;2023-02-15T12:44:15;12.30;;;9.03;;
10090;SDS011;5084;51.386;6.778;2023-02-15T12:46:50;12.10;;;9.80;;
10090;SDS011;5084;51.386;6.778;2023-02-15T12:49:21;12.50;;;9.53;;
10090;SDS011;5084;51.386;6.778;2023-02-15T12:54:17;12.57;;;9.87;;
10090;SDS011;5084;51.386;6.778;2023-02-15T12:56:43;12.40;;;8.93;;
10090;SDS011;5084;51.386;6.778;2023-02-15T12:59:12;12.63;;;9.93;;
10090;SDS011;5084;51.386;6.778;2023-02-15T13:01:40;11.57;;;8.70;;
10090;SDS011;5084;51.386;6.778;2023-02-15T13:04:28;13.40;;;9.93;;
10090;SDS011;5084;51.386;6.778;2023-02-15T13:06:55;11.97;;;9.90;;
10090;SDS011;5084;51.386;6.778;2023-02-15T13:11:57;12.90;;;9.50;;
10090;SDS011;5084;51.386;6.778;2023-02-15T13:14:31;13.47;;;9.53;;
10090;SDS011;5084;51.386;6.778;2023-02-15T13:16:58;12.87;;;9.77;;
10090;SDS011;5084;51.386;6.778;2023-02-15T13:19:34;13.50;;;9.20;;
10090;SDS011;5084;51.386;6.778;2023-02-15T13:22:04;11.20;;;8.77;;
10090;SDS011;5084;51.386;6.778;2023-02-15T13:25:05;13.23;;;8.80;;
10090;SDS011;5084;51.386;6.778;2023-02-15T13:27:24;9.73;;;8.13;;
10090;SDS011;5084;51.386;6.778;2023-02-15T13:29:53;11.87;;;9.23;;
10090;SDS011;5084;51.386;6.778;2023-02-15T13:34:56;11.33;;;9.03;;
10090;SDS011;5084;51.386;6.778;2023-02-15T13:40:08;10.30;;;7.93;;
10090;SDS011;5084;51.386;6.778;2023-02-15T13:50:34;13.07;;;8.90;;
10090;SDS011;5084;51.386;6.778;2023-02-15T13:55:49;11.40;;;8.70;;
10090;SDS011;5084;51.386;6.778;2023-02-15T13:58:27;11.37;;;8.47;;
10090;SDS011;5084;51.386;6.778;2023-02-15T14:01:43;12.33;;;9.10;;
10090;SDS011;5084;51.386;6.778;2023-02-15T14:09:22;12.83;;;7.87;;
10090;SDS011;5084;51.386;6.778;2023-02-15T14:12:06;11.60;;;8.87;;
10090;SDS011;5084;51.386;6.778;2023-02-15T14:17:16;11.97;;;8.10;;
10090;SDS011;5084;51.386;6.778;2023-02-15T14:19:48;11.27;;;9.13;;
10090;SDS011;5084;51.386;6.778;2023-02-15T14:29:51;10.33;;;8.30;;
10090;SDS011;5084;51.386;6.778;2023-02-15T14:32:36;9.67;;;7.47;;
10090;SDS011;5084;51.386;6.778;2023-02-15T14:35:03;9.17;;;6.93;;
10090;SDS011;5084;51.386;6.778;2023-02-15T14:45:29;10.40;;;7.90;;
10090;SDS011;5084;51.386;6.778;2023-02-15T14:48:01;11.30;;;8.60;;
10090;SDS011;5084;51.386;6.778;2023-02-15T14:53:14;9.73;;;8.33;;
10090;SDS011;5084;51.386;6.778;2023-02-15T14:55:40;10.13;;;8.20;;
10090;SDS011;5084;51.386;6.778;2023-02-15T14:58:10;11.30;;;8.77;;
10090;SDS011;5084;51.386;6.778;2023-02-15T15:00:38;8.57;;;7.63;;
10090;SDS011;5084;51.386;6.778;2023-02-15T15:03:11;10.80;;;8.30;;
10090;SDS011;5084;51.386;6.778;2023-02-15T15:05:46;10.77;;;8.50;;
10090;SDS011;5084;51.386;6.778;2023-02-15T15:08:26;11.97;;;9.07;;
10090;SDS011;5084;51.386;6.778;2023-02-15T15:10:54;12.40;;;8.67;;
10090;SDS011;5084;51.386;6.778;2023-02-15T15:18:47;10.67;;;7.90;;
10090;SDS011;5084;51.386;6.778;2023-02-15T15:23:58;9.73;;;7.80;;
10090;SDS011;5084;51.386;6.778;2023-02-15T15:26:26;9.47;;;8.17;;
10090;SDS011;5084;51.386;6.778;2023-02-15T15:28:53;9.03;;;7.40;;
10090;SDS011;5084;51.386;6.778;2023-02-15T15:31:22;11.77;;;8.70;;
10090;SDS011;5084;51.386;6.778;2023-02-15T15:33:57;10.80;;;7.93;;
10090;SDS011;5084;51.386;6.778;2023-02-15T15:36:50;10.70;;;8.07;;
10090;SDS011;5084;51.386;6.778;2023-02-15T15:39:31;9.27;;;7.57;;
10090;SDS011;5084;51.386;6.778;2023-02-15T15:42:13;12.27;;;8.30;;
10090;SDS011;5084;51.386;6.778;2023-02-15T15:49:58;8.27;;;7.40;;
10090;SDS011;5084;51.386;6.778;2023-02-15T15:52:24;10.60;;;8.47;;
10090;SDS011;5084;51.386;6.778;2023-02-15T15:54:53;9.67;;;7.77;;
10090;SDS011;5084;51.386;6.778;2023-02-15T15:57:39;10.77;;;8.57;;
10090;SDS011;5084;51.386;6.778;2023-02-15T16:02:52;11.77;;;8.07;;
10090;SDS011;5084;51.386;6.778;2023-02-15T16:05:18;9.40;;;7.63;;
10090;SDS011;5084;51.386;6.778;2023-02-15T16:07:44;9.37;;;7.93;;
10090;SDS011;5084;51.386;6.778;2023-02-15T16:10:24;9.83;;;8.20;;
10090;SDS011;5084;51.386;6.778;2023-02-15T16:12:50;12.50;;;8.23;;
10090;SDS011;5084;51.386;6.778;2023-02-15T16:15:21;10.17;;;8.50;;
10090;SDS011;5084;51.386;6.778;2023-02-15T16:17:53;10.23;;;8.23;;
10090;SDS011;5084;51.386;6.778;2023-02-15T16:20:21;11.20;;;8.80;;
10090;SDS011;5084;51.386;6.778;2023-02-15T16:22:49;11.73;;;8.10;;
10090;SDS011;5084;51.386;6.778;2023-02-15T16:28:05;10.53;;;7.60;;
10090;SDS011;5084;51.386;6.778;2023-02-15T16:30:32;10.03;;;8.07;;
10090;SDS011;5084;51.386;6.778;2023-02-15T16:33:11;9.60;;;8.00;;
10090;SDS011;5084;51.386;6.778;2023-02-15T16:35:39;10.47;;;8.57;;
10090;SDS011;5084;51.386;6.778;2023-02-15T16:38:08;9.73;;;7.67;;
10090;SDS011;5084;51.386;6.778;2023-02-15T16:40:41;9.60;;;7.70;;
10090;SDS011;5084;51.386;6.778;2023-02-15T16:43:12;9.63;;;8.23;;
10090;SDS011;5084;51.386;6.778;2023-02-15T16:45:39;9.77;;;7.97;;
10090;SDS011;5084;51.386;6.778;2023-02-15T16:48:07;9.97;;;7.83;;
10090;SDS011;5084;51.386;6.778;2023-02-15T16:50:35;9.67;;;8.67;;
10090;SDS011;5084;51.386;6.778;2023-02-15T16:53:02;12.10;;;8.07;;
10090;SDS011;5084;51.386;6.778;2023-02-15T16:55:31;11.30;;;7.87;;
10090;SDS011;5084;51.386;6.778;2023-02-15T16:58:01;10.93;;;8.20;;
10090;SDS011;5084;51.386;6.778;2023-02-15T17:00:30;9.37;;;7.20;;
10090;SDS011;5084;51.386;6.778;2023-02-15T17:03:00;9.23;;;7.57;;
10090;SDS011;5084;51.386;6.778;2023-02-15T17:05:31;9.37;;;8.30;;
10090;SDS011;5084;51.386;6.778;2023-02-15T17:08:17;11.87;;;9.07;;
10090;SDS011;5084;51.386;6.778;2023-02-15T17:13:29;9.60;;;7.93;;
10090;SDS011;5084;51.386;6.778;2023-02-15T17:18:27;11.37;;;8.03;;